sensor_id;sensor_type;location;lat;lon;timestamp;P1;durP1;ratioP1;P2;durP2;ratioP2
18685;SDS011;9473;52.342;13.110;2023-02-28T00:01:29;5.22;;;1.98;;
18685;SDS011;9473;52.342;13.110;2023-02-28T00:03:57;3.95;;;1.90;;
18685;SDS011;9473;52.342;13.110;2023-02-28T00:06:25;3.88;;;1.73;;
18685;SDS011;9473;52.342;13.110;2023-02-28T00:08:52;5.60;;;1.95;;
18685;SDS011;9473;52.342;13.110;2023-02-28T00:11:19;3.50;;;2.05;;
18685;SDS011;9473;52.342;13.110;2023-02-28T00:13:46;3.70;;;2.17;;
18685;SDS011;9473;52.342;13.110;2023-02-28T00:16:14;4.18;;;2.25;;
18685;SDS011;9473;52.342;13.110;2023-02-28T00:18:42;4.15;;;2.10;;
18685;SDS011;9473;52.342;13.110;2023-02-28T00:21:09;4.00;;;2.30;;
18685;SDS011;9473;52.342;13.110;2023-02-28T00:23:37;3.58;;;2.00;;
18685;SDS011;9473;52.342;13.110;2023-02-28T00:26:04;4.72;;;2.60;;
18685;SDS011;9473;52.342;13.110;2023-02-28T00:28:31;4.85;;;2.28;;
18685;SDS011;9473;52.342;13.110;2023-02-28T00:30:58;3.95;;;1.90;;
18685;SDS011;9473;52.342;13.110;2023-02-28T00:33:25;3.88;;;1.88;;
18685;SDS011;9473;52.342;13.110;2023-02-28T00:36:00;5.95;;;2.10;;
18685;SDS011;9473;52.342;13.110;2023-02-28T00:38:27;4.72;;;1.90;;
18685;SDS011;9473;52.342;13.110;2023-02-28T00:40:55;5.00;;;2.33;;
18685;SDS011;9473;52.342;13.110;2023-02-28T00:43:23;3.53;;;2.10;;
18685;SDS011;9473;52.342;13.110;2023-02-28T00:45:50;4.93;;;2.20;;
18685;SDS011;9473;52.342;13.110;2023-02-28T00:48:17;5.68;;;2.17;;
18685;SDS011;9473;52.342;13.110;2023-02-28T00:50:44;4.03;;;2.10;;
18685;SDS011;9473;52.342;13.110;2023-02-28T00:53:11;5.43;;;2.42;;
18685;SDS011;9473;52.342;13.110;2023-02-28T00:55:37;3.83;;;2.33;;
18685;SDS011;9473;52.342;13.110;2023-02-28T00:58:06;5.55;;;2.60;;
18685;SDS011;9473;52.342;13.110;2023-02-28T01:00:33;5.35;;;2.20;;
18685;SDS011;9473;52.342;13.110;2023-02-28T01:03:00;7.22;;;2.45;;
18685;SDS011;9473;52.342;13.110;2023-02-28T01:05:26;3.58;;;2.10;;
18685;SDS011;9473;52.342;13.110;2023-02-28T01:07:53;4.68;;;2.50;;
18685;SDS011;9473;52.342;13.110;2023-02-28T01:10:20;7.00;;;2.65;;
18685;SDS011;9473;52.342;13.110;2023-02-28T01:12:47;7.47;;;2.67;;
18685;SDS011;9473;52.342;13.110;2023-02-28T01:15:15;7.60;;;2.78;;
18685;SDS011;9473;52.342;13.110;2023-02-28T01:17:43;5.00;;;2.60;;
18685;SDS011;9473;52.342;13.110;2023-02-28T01:20:10;6.18;;;2.70;;
18685;SDS011;9473;52.342;13.110;2023-02-28T01:22:37;5.22;;;2.58;;
18685;SDS011;9473;52.342;13.110;2023-02-28T01:25:04;5.60;;;2.75;;
18685;SDS011;9473;52.342;13.110;2023-02-28T01:27:31;5.35;;;2.78;;
18685;SDS011;9473;52.342;13.110;2023-02-28T01:29:58;4.65;;;2.90;;
18685;SDS011;9473;52.342;13.110;2023-02-28T01:32:26;5.65;;;2.50;;
18685;SDS011;9473;52.342;13.110;2023-02-28T01:34:53;6.93;;;2.72;;
18685;SDS011;9473;52.342;13.110;2023-02-28T01:37:20;4.50;;;2.70;;
18685;SDS011;9473;52.342;13.110;2023-02-28T01:39:47;6.63;;;2.63;;
18685;SDS011;9473;52.342;13.110;2023-02-28T01:42:14;7.10;;;2.88;;
18685;SDS011;9473;52.342;13.110;2023-02-28T01:44:55;5.88;;;2.90;;
18685;SDS011;9473;52.342;13.110;2023-02-28T01:47:23;6.43;;;2.60;;
18685;SDS011;9473;52.342;13.110;2023-02-28T01:49:53;4.97;;;3.10;;
18685;SDS011;9473;52.342;13.110;2023-02-28T01:52:20;8.70;;;3.53;;
18685;SDS011;9473;52.342;13.110;2023-02-28T01:54:50;8.13;;;3.15;;
18685;SDS011;9473;52.342;13.110;2023-02-28T01:57:18;7.75;;;2.92;;
18685;SDS011;9473;52.342;13.110;2023-02-28T01:59:46;5.15;;;2.80;;
18685;SDS011;9473;52.342;13.110;2023-02-28T02:02:15;5.85;;;2.78;;
18685;SDS011;9473;52.342;13.110;2023-02-28T02:04:44;6.90;;;2.60;;
18685;SDS011;9473;52.342;13.110;2023-02-28T02:07:14;5.50;;;2.97;;
18685;SDS011;9473;52.342;13.110;2023-02-28T02:09:41;6.90;;;2.92;;
18685;SDS011;9473;52.342;13.110;2023-02-28T02:12:10;4.47;;;2.63;;
18685;SDS011;9473;52.342;13.110;2023-02-28T02:14:43;8.48;;;2.95;;
18685;SDS011;9473;52.342;13.110;2023-02-28T02:17:18;6.90;;;3.10;;
18685;SDS011;9473;52.342;13.110;2023-02-28T02:22:38;7.28;;;3.03;;
18685;SDS011;9473;52.342;13.110;2023-02-28T02:25:23;6.78;;;3.25;;
18685;SDS011;9473;52.342;13.110;2023-02-28T02:27:57;5.05;;;2.78;;
18685;SDS011;9473;52.342;13.110;2023-02-28T02:33:26;5.88;;;2.58;;
18685;SDS011;9473;52.342;13.110;2023-02-28T02:35:59;5.97;;;2.95;;
18685;SDS011;9473;52.342;13.110;2023-02-28T02:38:31;7.80;;;3.10;;
18685;SDS011;9473;52.342;13.110;2023-02-28T02:41:07;6.03;;;2.75;;
18685;SDS011;9473;52.342;13.110;2023-02-28T02:43:36;5.25;;;2.58;;
18685;SDS011;9473;52.342;13.110;2023-02-28T02:46:05;7.55;;;3.15;;
18685;SDS011;9473;52.342;13.110;2023-02-28T02:48:34;7.13;;;2.58;;
18685;SDS011;9473;52.342;13.110;2023-02-28T02:51:05;8.93;;;3.30;;
18685;SDS011;9473;52.342;13.110;2023-02-28T02:53:37;6.53;;;2.90;;
18685;SDS011;9473;52.342;13.110;2023-02-28T02:56:05;6.35;;;3.30;;
18685;SDS011;9473;52.342;13.110;2023-02-28T02:58:34;6.53;;;3.03;;
18685;SDS011;9473;52.342;13.110;2023-02-28T03:01:07;8.90;;;2.97;;
18685;SDS011;9473;52.342;13.110;2023-02-28T03:03:35;6.85;;;3.08;;
18685;SDS011;9473;52.342;13.110;2023-02-28T03:06:03;7.30;;;2.95;;
18685;SDS011;9473;52.342;13.110;2023-02-28T03:08:34;5.72;;;2.83;;
18685;SDS011;9473;52.342;13.110;2023-02-28T03:11:03;5.35;;;3.00;;
18685;SDS011;9473;52.342;13.110;2023-02-28T03:13:37;7.47;;;3.30;;
18685;SDS011;9473;52.342;13.110;2023-02-28T03:16:14;4.03;;;2.50;;
18685;SDS011;9473;52.342;13.110;2023-02-28T03:18:45;7.63;;;3.15;;
18685;SDS011;9473;52.342;13.110;2023-02-28T03:21:18;5.35;;;2.78;;
18685;SDS011;9473;52.342;13.110;2023-02-28T03:23:51;5.35;;;2.70;;
18685;SDS011;9473;52.342;13.110;2023-02-28T03:26:21;6.70;;;2.67;;
18685;SDS011;9473;52.342;13.110;2023-02-28T03:28:51;4.78;;;3.05;;
18685;SDS011;9473;52.342;13.110;2023-02-28T03:31:21;5.00;;;2.50;;
18685;SDS011;9473;52.342;13.110;2023-02-28T03:33:50;4.50;;;2.58;;
18685;SDS011;9473;52.342;13.110;2023-02-28T03:36:20;4.55;;;2.88;;
18685;SDS011;9473;52.342;13.110;2023-02-28T03:38:50;6.00;;;2.67;;
18685;SDS011;9473;52.342;13.110;2023-02-28T03:41:19;7.85;;;3.05;;
18685;SDS011;9473;52.342;13.110;2023-02-28T03:43:49;6.20;;;2.70;;
18685;SDS011;9473;52.342;13.110;2023-02-28T03:46:18;5.45;;;2.58;;
18685;SDS011;9473;52.342;13.110;2023-02-28T03:48:49;6.93;;;2.97;;
18685;SDS011;9473;52.342;13.110;2023-02-28T03:51:18;6.95;;;2.83;;
18685;SDS011;9473;52.342;13.110;2023-02-28T03:53:46;9.68;;;3.13;;
18685;SDS011;9473;52.342;13.110;2023-02-28T03:56:18;4.47;;;2.58;;
18685;SDS011;9473;52.342;13.110;2023-02-28T03:58:47;6.35;;;2.40;;
18685;SDS011;9473;52.342;13.110;2023-02-28T04:01:17;7.97;;;3.08;;
18685;SDS011;9473;52.342;13.110;2023-02-28T04:03:45;6.32;;;3.17;;
18685;SDS011;9473;52.342;13.110;2023-02-28T04:06:14;8.13;;;2.88;;
18685;SDS011;9473;52.342;13.110;2023-02-28T04:08:41;6.68;;;3.05;;
18685;SDS011;9473;52.342;13.110;2023-02-28T04:11:12;6.30;;;3.30;;
18685;SDS011;9473;52.342;13.110;2023-02-28T04:13:44;5.60;;;3.40;;
18685;SDS011;9473;52.342;13.110;2023-02-28T04:16:11;6.97;;;3.38;;
18685;SDS011;9473;52.342;13.110;2023-02-28T04:18:38;6.07;;;3.13;;
18685;SDS011;9473;52.342;13.110;2023-02-28T04:21:05;7.65;;;3.28;;
18685;SDS011;9473;52.342;13.110;2023-02-28T04:23:32;7.15;;;2.97;;
18685;SDS011;9473;52.342;13.110;2023-02-28T04:25:59;5.03;;;3.13;;
18685;SDS011;9473;52.342;13.110;2023-02-28T04:28:26;7.13;;;3.17;;
18685;SDS011;9473;52.342;13.110;2023-02-28T04:30:55;7.22;;;3.05;;
18685;SDS011;9473;52.342;13.110;2023-02-28T04:33:22;9.55;;;3.35;;
18685;SDS011;9473;52.342;13.110;2023-02-28T04:35:57;5.25;;;2.70;;
18685;SDS011;9473;52.342;13.110;2023-02-28T04:38:24;6.70;;;2.72;;
18685;SDS011;9473;52.342;13.110;2023-02-28T04:40:51;8.75;;;3.33;;
18685;SDS011;9473;52.342;13.110;2023-02-28T04:43:18;7.43;;;3.10;;
18685;SDS011;9473;52.342;13.110;2023-02-28T04:45:44;8.68;;;3.33;;
18685;SDS011;9473;52.342;13.110;2023-02-28T04:48:13;7.18;;;3.30;;
18685;SDS011;9473;52.342;13.110;2023-02-28T04:50:40;7.10;;;3.60;;
18685;SDS011;9473;52.342;13.110;2023-02-28T04:53:06;8.13;;;3.67;;
18685;SDS011;9473;52.342;13.110;2023-02-28T04:55:33;5.32;;;3.35;;
18685;SDS011;9473;52.342;13.110;2023-02-28T04:58:01;9.60;;;3.60;;
18685;SDS011;9473;52.342;13.110;2023-02-28T05:00:27;6.57;;;3.05;;
18685;SDS011;9473;52.342;13.110;2023-02-28T05:02:54;6.07;;;3.38;;
18685;SDS011;9473;52.342;13.110;2023-02-28T05:05:23;10.18;;;3.80;;
18685;SDS011;9473;52.342;13.110;2023-02-28T05:07:50;6.03;;;3.58;;
18685;SDS011;9473;52.342;13.110;2023-02-28T05:10:18;8.48;;;3.70;;
18685;SDS011;9473;52.342;13.110;2023-02-28T05:12:45;8.80;;;3.78;;
18685;SDS011;9473;52.342;13.110;2023-02-28T05:15:13;6.95;;;4.38;;
18685;SDS011;9473;52.342;13.110;2023-02-28T05:17:40;8.95;;;3.97;;
18685;SDS011;9473;52.342;13.110;2023-02-28T05:20:08;6.65;;;3.95;;
18685;SDS011;9473;52.342;13.110;2023-02-28T05:22:37;9.23;;;3.90;;
18685;SDS011;9473;52.342;13.110;2023-02-28T05:25:04;9.15;;;4.07;;
18685;SDS011;9473;52.342;13.110;2023-02-28T05:27:32;10.85;;;3.80;;
18685;SDS011;9473;52.342;13.110;2023-02-28T05:29:59;8.95;;;3.78;;
18685;SDS011;9473;52.342;13.110;2023-02-28T05:32:28;9.30;;;4.28;;
18685;SDS011;9473;52.342;13.110;2023-02-28T05:34:55;8.02;;;3.95;;
18685;SDS011;9473;52.342;13.110;2023-02-28T05:37:22;9.02;;;3.95;;
18685;SDS011;9473;52.342;13.110;2023-02-28T05:39:50;10.02;;;3.92;;
18685;SDS011;9473;52.342;13.110;2023-02-28T05:42:17;8.50;;;4.10;;
18685;SDS011;9473;52.342;13.110;2023-02-28T05:44:44;8.30;;;4.07;;
18685;SDS011;9473;52.342;13.110;2023-02-28T05:47:11;7.80;;;3.92;;
18685;SDS011;9473;52.342;13.110;2023-02-28T05:49:40;7.22;;;4.15;;
18685;SDS011;9473;52.342;13.110;2023-02-28T05:52:07;7.93;;;3.83;;
18685;SDS011;9473;52.342;13.110;2023-02-28T05:54:34;9.38;;;4.03;;
18685;SDS011;9473;52.342;13.110;2023-02-28T05:57:02;8.95;;;4.38;;
18685;SDS011;9473;52.342;13.110;2023-02-28T05:59:29;10.38;;;4.65;;
18685;SDS011;9473;52.342;13.110;2023-02-28T06:01:56;8.20;;;4.28;;
18685;SDS011;9473;52.342;13.110;2023-02-28T06:04:23;12.10;;;4.93;;
18685;SDS011;9473;52.342;13.110;2023-02-28T06:06:50;9.75;;;4.50;;
18685;SDS011;9473;52.342;13.110;2023-02-28T06:09:17;13.93;;;6.20;;
18685;SDS011;9473;52.342;13.110;2023-02-28T06:11:45;12.10;;;5.30;;
18685;SDS011;9473;52.342;13.110;2023-02-28T06:14:14;9.07;;;4.47;;
18685;SDS011;9473;52.342;13.110;2023-02-28T06:16:41;10.77;;;4.93;;
18685;SDS011;9473;52.342;13.110;2023-02-28T06:19:09;10.65;;;4.75;;
18685;SDS011;9473;52.342;13.110;2023-02-28T06:21:36;14.55;;;6.10;;
18685;SDS011;9473;52.342;13.110;2023-02-28T06:24:03;14.70;;;6.60;;
18685;SDS011;9473;52.342;13.110;2023-02-28T06:26:31;19.88;;;6.82;;
18685;SDS011;9473;52.342;13.110;2023-02-28T06:28:57;14.45;;;6.82;;
18685;SDS011;9473;52.342;13.110;2023-02-28T06:31:26;11.00;;;5.68;;
18685;SDS011;9473;52.342;13.110;2023-02-28T06:33:54;15.23;;;6.68;;
18685;SDS011;9473;52.342;13.110;2023-02-28T06:36:21;14.75;;;6.43;;
18685;SDS011;9473;52.342;13.110;2023-02-28T06:38:48;12.38;;;5.90;;
18685;SDS011;9473;52.342;13.110;2023-02-28T06:41:19;13.85;;;5.95;;
18685;SDS011;9473;52.342;13.110;2023-02-28T06:43:46;11.15;;;6.18;;
18685;SDS011;9473;52.342;13.110;2023-02-28T06:46:13;12.68;;;6.03;;
18685;SDS011;9473;52.342;13.110;2023-02-28T06:48:42;12.60;;;5.57;;
18685;SDS011;9473;52.342;13.110;2023-02-28T06:51:10;10.00;;;5.20;;
18685;SDS011;9473;52.342;13.110;2023-02-28T06:53:38;12.40;;;5.38;;
18685;SDS011;9473;52.342;13.110;2023-02-28T06:56:05;12.35;;;5.43;;
18685;SDS011;9473;52.342;13.110;2023-02-28T06:58:32;11.27;;;5.43;;
18685;SDS011;9473;52.342;13.110;2023-02-28T07:00:59;13.07;;;4.55;;
18685;SDS011;9473;52.342;13.110;2023-02-28T07:03:26;9.02;;;4.63;;
18685;SDS011;9473;52.342;13.110;2023-02-28T07:05:55;11.10;;;4.65;;
18685;SDS011;9473;52.342;13.110;2023-02-28T07:08:22;10.70;;;4.65;;
18685;SDS011;9473;52.342;13.110;2023-02-28T07:10:51;11.05;;;4.32;;
18685;SDS011;9473;52.342;13.110;2023-02-28T07:13:18;11.00;;;5.07;;
18685;SDS011;9473;52.342;13.110;2023-02-28T07:15:52;10.60;;;5.15;;
18685;SDS011;9473;52.342;13.110;2023-02-28T07:18:19;13.02;;;6.28;;
18685;SDS011;9473;52.342;13.110;2023-02-28T07:20:46;12.38;;;6.28;;
18685;SDS011;9473;52.342;13.110;2023-02-28T07:23:14;12.85;;;6.35;;
18685;SDS011;9473;52.342;13.110;2023-02-28T07:25:41;11.32;;;6.00;;
18685;SDS011;9473;52.342;13.110;2023-02-28T07:28:08;12.43;;;6.30;;
18685;SDS011;9473;52.342;13.110;2023-02-28T07:30:35;10.35;;;6.03;;
18685;SDS011;9473;52.342;13.110;2023-02-28T07:33:02;11.60;;;6.18;;
18685;SDS011;9473;52.342;13.110;2023-02-28T07:35:29;9.82;;;5.57;;
18685;SDS011;9473;52.342;13.110;2023-02-28T07:37:56;13.80;;;6.65;;
18685;SDS011;9473;52.342;13.110;2023-02-28T07:40:25;13.75;;;6.30;;
18685;SDS011;9473;52.342;13.110;2023-02-28T07:42:52;14.68;;;6.35;;
18685;SDS011;9473;52.342;13.110;2023-02-28T07:45:19;13.18;;;6.03;;
18685;SDS011;9473;52.342;13.110;2023-02-28T07:47:46;10.23;;;5.25;;
18685;SDS011;9473;52.342;13.110;2023-02-28T07:50:13;12.32;;;6.20;;
18685;SDS011;9473;52.342;13.110;2023-02-28T07:52:41;9.75;;;4.90;;
18685;SDS011;9473;52.342;13.110;2023-02-28T07:55:08;8.30;;;4.25;;
18685;SDS011;9473;52.342;13.110;2023-02-28T07:57:37;14.25;;;5.95;;
18685;SDS011;9473;52.342;13.110;2023-02-28T08:00:04;13.93;;;5.72;;
18685;SDS011;9473;52.342;13.110;2023-02-28T08:02:32;12.63;;;5.70;;
18685;SDS011;9473;52.342;13.110;2023-02-28T08:04:59;20.63;;;8.65;;
18685;SDS011;9473;52.342;13.110;2023-02-28T08:07:26;28.65;;;10.23;;
18685;SDS011;9473;52.342;13.110;2023-02-28T08:09:53;27.38;;;10.02;;
18685;SDS011;9473;52.342;13.110;2023-02-28T08:12:20;35.38;;;13.32;;
18685;SDS011;9473;52.342;13.110;2023-02-28T08:14:48;35.13;;;13.75;;
18685;SDS011;9473;52.342;13.110;2023-02-28T08:17:15;29.05;;;11.77;;
18685;SDS011;9473;52.342;13.110;2023-02-28T08:19:44;32.40;;;12.32;;
18685;SDS011;9473;52.342;13.110;2023-02-28T08:22:11;27.25;;;9.43;;
18685;SDS011;9473;52.342;13.110;2023-02-28T08:24:39;19.40;;;7.90;;
18685;SDS011;9473;52.342;13.110;2023-02-28T08:27:07;13.77;;;5.68;;
18685;SDS011;9473;52.342;13.110;2023-02-28T08:29:36;9.43;;;4.13;;
18685;SDS011;9473;52.342;13.110;2023-02-28T08:32:04;9.93;;;3.90;;
18685;SDS011;9473;52.342;13.110;2023-02-28T08:34:31;6.32;;;3.30;;
18685;SDS011;9473;52.342;13.110;2023-02-28T08:36:58;7.82;;;3.58;;
18685;SDS011;9473;52.342;13.110;2023-02-28T08:39:25;7.05;;;3.17;;
18685;SDS011;9473;52.342;13.110;2023-02-28T08:41:52;6.13;;;3.45;;
18685;SDS011;9473;52.342;13.110;2023-02-28T08:44:19;7.68;;;3.15;;
18685;SDS011;9473;52.342;13.110;2023-02-28T08:46:46;5.85;;;3.13;;
18685;SDS011;9473;52.342;13.110;2023-02-28T08:49:14;6.15;;;3.03;;
18685;SDS011;9473;52.342;13.110;2023-02-28T08:51:41;7.47;;;3.45;;
18685;SDS011;9473;52.342;13.110;2023-02-28T08:54:08;10.10;;;4.00;;
18685;SDS011;9473;52.342;13.110;2023-02-28T08:56:37;6.85;;;2.97;;
18685;SDS011;9473;52.342;13.110;2023-02-28T08:59:04;5.97;;;2.88;;
18685;SDS011;9473;52.342;13.110;2023-02-28T09:01:31;9.25;;;2.95;;
18685;SDS011;9473;52.342;13.110;2023-02-28T09:03:58;6.22;;;3.05;;
18685;SDS011;9473;52.342;13.110;2023-02-28T09:06:27;8.40;;;3.38;;
18685;SDS011;9473;52.342;13.110;2023-02-28T09:08:55;6.38;;;3.00;;
18685;SDS011;9473;52.342;13.110;2023-02-28T09:11:24;7.53;;;2.78;;
18685;SDS011;9473;52.342;13.110;2023-02-28T09:13:51;6.75;;;3.33;;
18685;SDS011;9473;52.342;13.110;2023-02-28T09:16:18;4.78;;;3.03;;
18685;SDS011;9473;52.342;13.110;2023-02-28T09:18:45;6.15;;;2.60;;
18685;SDS011;9473;52.342;13.110;2023-02-28T09:21:13;4.57;;;2.60;;
18685;SDS011;9473;52.342;13.110;2023-02-28T09:23:42;5.18;;;2.28;;
18685;SDS011;9473;52.342;13.110;2023-02-28T09:26:13;9.35;;;2.60;;
18685;SDS011;9473;52.342;13.110;2023-02-28T09:28:40;4.63;;;2.42;;
18685;SDS011;9473;52.342;13.110;2023-02-28T09:31:10;4.65;;;1.85;;
18685;SDS011;9473;52.342;13.110;2023-02-28T09:33:38;5.03;;;2.50;;
18685;SDS011;9473;52.342;13.110;2023-02-28T09:36:05;7.25;;;1.75;;
18685;SDS011;9473;52.342;13.110;2023-02-28T09:38:32;5.30;;;2.35;;
18685;SDS011;9473;52.342;13.110;2023-02-28T09:41:01;4.45;;;1.50;;
18685;SDS011;9473;52.342;13.110;2023-02-28T09:43:29;2.65;;;1.30;;
18685;SDS011;9473;52.342;13.110;2023-02-28T09:45:59;2.75;;;1.40;;
18685;SDS011;9473;52.342;13.110;2023-02-28T09:48:27;1.85;;;0.90;;
18685;SDS011;9473;52.342;13.110;2023-02-28T09:50:59;3.75;;;1.40;;
18685;SDS011;9473;52.342;13.110;2023-02-28T09:53:28;2.95;;;1.38;;
18685;SDS011;9473;52.342;13.110;2023-02-28T09:55:59;2.53;;;1.20;;
18685;SDS011;9473;52.342;13.110;2023-02-28T09:58:31;2.28;;;1.20;;
18685;SDS011;9473;52.342;13.110;2023-02-28T10:00:59;3.25;;;1.45;;
18685;SDS011;9473;52.342;13.110;2023-02-28T10:03:30;4.03;;;1.40;;
18685;SDS011;9473;52.342;13.110;2023-02-28T10:05:59;3.15;;;1.27;;
18685;SDS011;9473;52.342;13.110;2023-02-28T10:08:29;2.95;;;1.40;;
18685;SDS011;9473;52.342;13.110;2023-02-28T10:10:57;3.25;;;1.70;;
18685;SDS011;9473;52.342;13.110;2023-02-28T10:13:26;3.20;;;1.17;;
18685;SDS011;9473;52.342;13.110;2023-02-28T10:15:58;1.35;;;0.90;;
18685;SDS011;9473;52.342;13.110;2023-02-28T10:18:27;2.50;;;1.10;;
18685;SDS011;9473;52.342;13.110;2023-02-28T10:20:55;4.13;;;1.00;;
18685;SDS011;9473;52.342;13.110;2023-02-28T10:23:23;1.48;;;0.68;;
18685;SDS011;9473;52.342;13.110;2023-02-28T10:25:53;1.85;;;1.10;;
18685;SDS011;9473;52.342;13.110;2023-02-28T10:28:20;2.47;;;1.10;;
18685;SDS011;9473;52.342;13.110;2023-02-28T10:30:48;3.20;;;1.05;;
18685;SDS011;9473;52.342;13.110;2023-02-28T10:33:18;3.75;;;1.20;;
18685;SDS011;9473;52.342;13.110;2023-02-28T10:35:46;2.00;;;0.80;;
18685;SDS011;9473;52.342;13.110;2023-02-28T10:38:16;3.42;;;0.88;;
18685;SDS011;9473;52.342;13.110;2023-02-28T10:40:42;1.95;;;1.23;;
18685;SDS011;9473;52.342;13.110;2023-02-28T10:43:17;2.05;;;1.08;;
18685;SDS011;9473;52.342;13.110;2023-02-28T10:45:52;1.80;;;1.10;;
18685;SDS011;9473;52.342;13.110;2023-02-28T10:48:29;3.67;;;1.60;;
18685;SDS011;9473;52.342;13.110;2023-02-28T10:50:56;3.78;;;1.40;;
18685;SDS011;9473;52.342;13.110;2023-02-28T10:53:31;3.63;;;1.40;;
18685;SDS011;9473;52.342;13.110;2023-02-28T10:56:00;3.25;;;1.77;;
18685;SDS011;9473;52.342;13.110;2023-02-28T10:58:28;3.58;;;1.17;;
18685;SDS011;9473;52.342;13.110;2023-02-28T11:00:56;2.25;;;1.30;;
18685;SDS011;9473;52.342;13.110;2023-02-28T11:03:25;3.55;;;1.52;;
18685;SDS011;9473;52.342;13.110;2023-02-28T11:05:53;4.53;;;1.80;;
18685;SDS011;9473;52.342;13.110;2023-02-28T11:08:20;3.40;;;1.83;;
18685;SDS011;9473;52.342;13.110;2023-02-28T11:10:48;4.80;;;1.58;;
18685;SDS011;9473;52.342;13.110;2023-02-28T11:13:20;4.75;;;1.60;;
18685;SDS011;9473;52.342;13.110;2023-02-28T11:15:50;2.03;;;1.15;;
18685;SDS011;9473;52.342;13.110;2023-02-28T11:18:21;2.58;;;1.20;;
18685;SDS011;9473;52.342;13.110;2023-02-28T11:20:49;5.20;;;1.23;;
18685;SDS011;9473;52.342;13.110;2023-02-28T11:23:18;3.53;;;1.65;;
18685;SDS011;9473;52.342;13.110;2023-02-28T11:25:46;4.20;;;2.08;;
18685;SDS011;9473;52.342;13.110;2023-02-28T11:28:23;2.80;;;1.50;;
18685;SDS011;9473;52.342;13.110;2023-02-28T11:30:59;4.55;;;1.75;;
18685;SDS011;9473;52.342;13.110;2023-02-28T11:33:27;3.35;;;1.42;;
18685;SDS011;9473;52.342;13.110;2023-02-28T11:35:55;3.15;;;1.58;;
18685;SDS011;9473;52.342;13.110;2023-02-28T11:38:26;3.20;;;1.45;;
18685;SDS011;9473;52.342;13.110;2023-02-28T11:40:58;4.47;;;1.40;;
18685;SDS011;9473;52.342;13.110;2023-02-28T11:43:32;3.10;;;1.65;;
18685;SDS011;9473;52.342;13.110;2023-02-28T11:46:05;2.17;;;1.38;;
18685;SDS011;9473;52.342;13.110;2023-02-28T11:48:35;2.63;;;1.27;;
18685;SDS011;9473;52.342;13.110;2023-02-28T11:51:10;3.45;;;1.40;;
18685;SDS011;9473;52.342;13.110;2023-02-28T11:56:33;2.97;;;1.48;;
18685;SDS011;9473;52.342;13.110;2023-02-28T11:59:12;2.80;;;1.27;;
18685;SDS011;9473;52.342;13.110;2023-02-28T12:01:47;2.72;;;1.48;;
18685;SDS011;9473;52.342;13.110;2023-02-28T12:04:21;2.22;;;1.13;;
18685;SDS011;9473;52.342;13.110;2023-02-28T12:06:52;3.10;;;1.40;;
18685;SDS011;9473;52.342;13.110;2023-02-28T12:09:28;3.47;;;1.52;;
18685;SDS011;9473;52.342;13.110;2023-02-28T12:11:59;2.75;;;1.48;;
18685;SDS011;9473;52.342;13.110;2023-02-28T12:14:42;3.92;;;1.45;;
18685;SDS011;9473;52.342;13.110;2023-02-28T12:17:16;2.78;;;1.40;;
18685;SDS011;9473;52.342;13.110;2023-02-28T12:19:47;3.28;;;1.23;;
18685;SDS011;9473;52.342;13.110;2023-02-28T12:22:19;2.33;;;1.40;;
18685;SDS011;9473;52.342;13.110;2023-02-28T12:24:55;6.32;;;1.38;;
18685;SDS011;9473;52.342;13.110;2023-02-28T12:27:29;4.15;;;1.40;;
18685;SDS011;9473;52.342;13.110;2023-02-28T12:29:57;3.20;;;1.60;;
18685;SDS011;9473;52.342;13.110;2023-02-28T12:32:26;4.50;;;1.50;;
18685;SDS011;9473;52.342;13.110;2023-02-28T12:34:55;4.75;;;1.52;;
18685;SDS011;9473;52.342;13.110;2023-02-28T12:37:25;3.45;;;1.30;;
18685;SDS011;9473;52.342;13.110;2023-02-28T12:39:55;4.40;;;1.98;;
18685;SDS011;9473;52.342;13.110;2023-02-28T12:42:24;2.30;;;1.40;;
18685;SDS011;9473;52.342;13.110;2023-02-28T12:44:56;3.08;;;1.55;;
18685;SDS011;9473;52.342;13.110;2023-02-28T12:47:24;2.42;;;1.20;;
18685;SDS011;9473;52.342;13.110;2023-02-28T12:49:52;3.60;;;1.80;;
18685;SDS011;9473;52.342;13.110;2023-02-28T12:52:22;4.00;;;2.00;;
18685;SDS011;9473;52.342;13.110;2023-02-28T12:54:52;2.95;;;1.70;;
18685;SDS011;9473;52.342;13.110;2023-02-28T12:57:22;4.03;;;1.63;;
18685;SDS011;9473;52.342;13.110;2023-02-28T12:59:52;3.08;;;1.70;;
18685;SDS011;9473;52.342;13.110;2023-02-28T13:02:30;3.70;;;2.08;;
18685;SDS011;9473;52.342;13.110;2023-02-28T13:05:06;5.80;;;2.65;;
18685;SDS011;9473;52.342;13.110;2023-02-28T13:08:01;3.67;;;1.92;;
18685;SDS011;9473;52.342;13.110;2023-02-28T13:10:40;4.07;;;1.83;;
18685;SDS011;9473;52.342;13.110;2023-02-28T13:13:11;3.75;;;1.65;;
18685;SDS011;9473;52.342;13.110;2023-02-28T13:15:40;6.07;;;1.88;;
18685;SDS011;9473;52.342;13.110;2023-02-28T13:18:20;4.60;;;1.52;;
18685;SDS011;9473;52.342;13.110;2023-02-28T13:20:53;6.50;;;1.88;;
18685;SDS011;9473;52.342;13.110;2023-02-28T13:23:37;4.57;;;1.75;;
18685;SDS011;9473;52.342;13.110;2023-02-28T13:26:04;4.35;;;1.92;;
18685;SDS011;9473;52.342;13.110;2023-02-28T13:31:32;3.97;;;1.58;;
18685;SDS011;9473;52.342;13.110;2023-02-28T13:34:05;3.35;;;1.70;;
18685;SDS011;9473;52.342;13.110;2023-02-28T13:36:32;4.70;;;2.10;;
18685;SDS011;9473;52.342;13.110;2023-02-28T13:38:59;4.10;;;1.83;;
18685;SDS011;9473;52.342;13.110;2023-02-28T13:41:40;3.92;;;1.80;;
18685;SDS011;9473;52.342;13.110;2023-02-28T13:44:08;3.25;;;1.70;;
18685;SDS011;9473;52.342;13.110;2023-02-28T13:46:36;3.83;;;1.70;;
18685;SDS011;9473;52.342;13.110;2023-02-28T13:49:23;4.28;;;1.92;;
18685;SDS011;9473;52.342;13.110;2023-02-28T13:51:52;4.28;;;1.77;;
18685;SDS011;9473;52.342;13.110;2023-02-28T13:54:24;4.60;;;1.50;;
18685;SDS011;9473;52.342;13.110;2023-02-28T13:56:57;4.07;;;1.90;;
18685;SDS011;9473;52.342;13.110;2023-02-28T13:59:31;4.25;;;1.80;;
18685;SDS011;9473;52.342;13.110;2023-02-28T14:02:03;4.15;;;1.92;;
18685;SDS011;9473;52.342;13.110;2023-02-28T14:07:23;4.00;;;1.83;;
18685;SDS011;9473;52.342;13.110;2023-02-28T14:09:55;8.38;;;1.95;;
18685;SDS011;9473;52.342;13.110;2023-02-28T14:17:50;4.03;;;1.60;;
18685;SDS011;9473;52.342;13.110;2023-02-28T14:20:18;5.03;;;1.80;;
18685;SDS011;9473;52.342;13.110;2023-02-28T14:22:51;4.30;;;1.73;;
18685;SDS011;9473;52.342;13.110;2023-02-28T14:25:22;4.93;;;1.95;;
18685;SDS011;9473;52.342;13.110;2023-02-28T14:27:53;6.95;;;2.28;;
18685;SDS011;9473;52.342;13.110;2023-02-28T14:33:18;4.13;;;2.15;;
18685;SDS011;9473;52.342;13.110;2023-02-28T14:35:51;5.53;;;1.90;;
18685;SDS011;9473;52.342;13.110;2023-02-28T14:38:23;2.92;;;1.73;;
18685;SDS011;9473;52.342;13.110;2023-02-28T14:40:51;6.03;;;2.13;;
18685;SDS011;9473;52.342;13.110;2023-02-28T14:43:19;5.13;;;2.10;;
18685;SDS011;9473;52.342;13.110;2023-02-28T14:45:49;3.97;;;2.20;;
18685;SDS011;9473;52.342;13.110;2023-02-28T14:48:16;5.15;;;2.38;;
18685;SDS011;9473;52.342;13.110;2023-02-28T14:50:48;4.95;;;2.25;;
18685;SDS011;9473;52.342;13.110;2023-02-28T14:53:15;3.63;;;2.00;;
18685;SDS011;9473;52.342;13.110;2023-02-28T14:55:46;4.95;;;1.73;;
18685;SDS011;9473;52.342;13.110;2023-02-28T14:58:18;3.58;;;1.98;;
18685;SDS011;9473;52.342;13.110;2023-02-28T15:00:46;3.35;;;1.70;;
18685;SDS011;9473;52.342;13.110;2023-02-28T15:03:17;6.43;;;2.30;;
18685;SDS011;9473;52.342;13.110;2023-02-28T15:05:50;3.95;;;1.83;;
18685;SDS011;9473;52.342;13.110;2023-02-28T15:08:18;4.70;;;2.45;;
18685;SDS011;9473;52.342;13.110;2023-02-28T15:10:50;4.85;;;2.30;;
18685;SDS011;9473;52.342;13.110;2023-02-28T15:13:18;4.80;;;2.28;;
18685;SDS011;9473;52.342;13.110;2023-02-28T15:15:46;4.35;;;2.13;;
18685;SDS011;9473;52.342;13.110;2023-02-28T15:18:15;5.75;;;2.33;;
18685;SDS011;9473;52.342;13.110;2023-02-28T15:20:43;3.50;;;1.80;;